createdAt,value
2019-05-11T00:02:29.779Z,99677.69
2019-05-11T00:05:01.085Z,99676.00
2019-05-11T00:07:32.467Z,99679.08
2019-05-11T00:10:03.921Z,99675.68
2019-05-11T00:12:35.246Z,99678.71
2019-05-11T00:15:06.991Z,99682.66
2019-05-11T00:17:38.303Z,99691.45
2019-05-11T00:20:09.999Z,99699.24
2019-05-11T00:22:41.352Z,99693.98
2019-05-11T00:25:12.865Z,99690.82
2019-05-11T00:27:44.171Z,99693.40
2019-05-11T00:30:15.913Z,99685.88
2019-05-11T00:32:47.257Z,99683.52
2019-05-11T00:35:18.535Z,99678.63
2019-05-11T00:37:49.835Z,99679.86
2019-05-11T00:40:21.149Z,99669.75
2019-05-11T00:42:52.485Z,99667.44
2019-05-11T00:45:23.731Z,99670.93
2019-05-11T00:47:55.061Z,99668.30
2019-05-11T00:50:38.543Z,99666.98
2019-05-11T00:52:59.359Z,99672.70
2019-05-11T00:55:30.651Z,99678.50
2019-05-11T00:58:01.924Z,99667.98
2019-05-11T01:00:33.225Z,99668.30
2019-05-11T01:03:04.503Z,99665.50
2019-05-11T01:05:35.797Z,99666.36
2019-05-11T01:08:07.106Z,99660.64
2019-05-11T01:10:42.698Z,99653.98
2019-05-11T01:13:11.341Z,99657.94
2019-05-11T01:15:42.625Z,99665.36
2019-05-11T01:18:14.137Z,99661.78
2019-05-11T01:20:45.697Z,99659.56
2019-05-11T01:23:16.955Z,99656.39
2019-05-11T01:25:48.238Z,99648.41
2019-05-11T01:28:19.604Z,99646.28
2019-05-11T01:30:50.919Z,99646.42
2019-05-11T01:33:22.236Z,99644.25
2019-05-11T01:35:53.557Z,99651.13
2019-05-11T01:38:24.863Z,99656.39
2019-05-11T01:40:58.897Z,99648.36
2019-05-11T01:43:29.162Z,99645.24
2019-05-11T01:46:00.437Z,99639.75
2019-05-11T01:48:31.707Z,99635.13
2019-05-11T01:51:03.003Z,99636.67
2019-05-11T01:53:34.336Z,99635.03
2019-05-11T01:56:05.672Z,99633.17
2019-05-11T01:58:36.975Z,99627.55
2019-05-11T02:01:08.662Z,99621.81
2019-05-11T02:03:40.022Z,99622.91
2019-05-11T02:06:11.276Z,99617.50
2019-05-11T02:08:42.556Z,99616.24
2019-05-11T02:11:16.194Z,99618.88
2019-05-11T02:13:46.814Z,99619.13
2019-05-11T02:16:18.101Z,99612.33
2019-05-11T02:18:49.431Z,99621.30
2019-05-11T02:21:20.755Z,99623.53
2019-05-11T02:23:52.018Z,99617.50
2019-05-11T02:26:23.310Z,99619.04
2019-05-11T02:28:54.593Z,99620.77
2019-05-11T02:31:25.905Z,99612.84
2019-05-11T02:33:57.253Z,99613.30
2019-05-11T02:36:28.517Z,99620.18
2019-05-11T02:38:59.833Z,99618.95
2019-05-11T02:41:36.323Z,99610.98
2019-05-11T02:44:04.321Z,99608.36
2019-05-11T02:46:36.054Z,99608.22
2019-05-11T02:49:07.397Z,99616.47
2019-05-11T02:51:40.391Z,99622.13
2019-05-11T02:54:13.166Z,99628.16
2019-05-11T02:56:44.481Z,99635.58
2019-05-11T02:59:15.800Z,99637.13
2019-05-11T03:01:47.088Z,99641.92
2019-05-11T03:04:18.408Z,99645.88
2019-05-11T03:06:49.668Z,99652.44
2019-05-11T03:09:20.971Z,99651.13
2019-05-11T03:11:55.378Z,99643.16
2019-05-11T03:14:25.260Z,99646.64
2019-05-11T03:17:12.386Z,99637.90
2019-05-11T03:19:43.707Z,99639.12
2019-05-11T03:22:15.222Z,99636.45
2019-05-11T03:24:46.521Z,99638.59
2019-05-11T03:27:17.751Z,99643.78
2019-05-11T03:29:49.103Z,99641.48
2019-05-11T03:32:20.368Z,99641.08
2019-05-11T03:34:51.711Z,99642.79
2019-05-11T03:37:22.991Z,99645.25
2019-05-11T03:39:54.246Z,99650.67
2019-05-11T03:42:25.508Z,99656.75
2019-05-11T03:44:56.787Z,99654.30
2019-05-11T03:47:28.113Z,99651.13
2019-05-11T03:49:59.380Z,99654.30
2019-05-11T03:52:30.707Z,99659.25
2019-05-11T03:55:01.985Z,99663.19
2019-05-11T03:57:33.277Z,99662.73
2019-05-11T04:00:04.741Z,99667.99
2019-05-11T04:02:36.016Z,99664.19
2019-05-11T04:05:07.633Z,99663.27
2019-05-11T04:07:38.907Z,99670.98
2019-05-11T04:10:10.365Z,99662.28
2019-05-11T04:12:41.616Z,99667.77
2019-05-11T04:15:13.292Z,99662.41
2019-05-11T04:17:44.565Z,99666.89
2019-05-11T04:20:15.910Z,99659.23
2019-05-11T04:22:47.190Z,99665.50
2019-05-11T04:25:18.466Z,99661.78
2019-05-11T04:27:49.763Z,99664.17
2019-05-11T04:30:21.185Z,99660.77
2019-05-11T04:32:52.462Z,99667.34
2019-05-11T04:35:23.771Z,99671.52
2019-05-11T04:37:55.080Z,99665.50
2019-05-11T04:40:26.301Z,99664.41
2019-05-11T04:42:57.611Z,99658.47
2019-05-11T04:45:28.887Z,99659.38
2019-05-11T04:48:00.204Z,99657.70
2019-05-11T04:50:31.499Z,99659.78
2019-05-11T04:53:02.782Z,99648.95
2019-05-11T04:55:34.084Z,99650.67
2019-05-11T04:58:05.367Z,99653.22
2019-05-11T05:00:36.615Z,99649.05
2019-05-11T05:03:07.935Z,99658.24
2019-05-11T05:05:39.224Z,99654.16
2019-05-11T05:08:10.525Z,99644.64
2019-05-11T05:10:41.811Z,99649.73
2019-05-11T05:13:13.101Z,99645.24
2019-05-11T05:15:44.373Z,99640.79
2019-05-11T05:18:15.636Z,99638.98
2019-05-11T05:20:46.948Z,99646.50
2019-05-11T05:23:18.257Z,99657.02
2019-05-11T05:25:49.505Z,99650.81
2019-05-11T05:28:20.815Z,99653.62
2019-05-11T05:30:52.128Z,99660.25
2019-05-11T05:33:23.412Z,99664.81
2019-05-11T05:35:54.709Z,99668.45
2019-05-11T05:38:26.021Z,99666.59
2019-05-11T05:40:57.353Z,99666.67
2019-05-11T05:43:28.778Z,99672.16
2019-05-11T05:46:00.049Z,99675.56
2019-05-11T05:48:31.387Z,99678.05
2019-05-11T05:51:02.747Z,99684.61
2019-05-11T05:53:34.027Z,99681.44
2019-05-11T05:56:05.371Z,99679.98
2019-05-11T05:58:36.793Z,99678.02
2019-05-11T06:01:10.293Z,99678.87
2019-05-11T06:03:41.076Z,99684.30
2019-05-11T06:06:12.404Z,99678.48
2019-05-11T06:08:43.747Z,99676.84
2019-05-11T06:11:15.087Z,99679.69
2019-05-11T06:13:46.467Z,99681.34
2019-05-11T06:16:17.976Z,99684.12
2019-05-11T06:18:49.462Z,99679.33
2019-05-11T06:21:20.769Z,99677.67
2019-05-11T06:23:52.074Z,99680.77
2019-05-11T06:26:23.438Z,99682.94
2019-05-11T06:28:54.714Z,99685.77
2019-05-11T06:31:26.196Z,99687.11
2019-05-11T06:33:57.535Z,99684.48
2019-05-11T06:36:28.870Z,99692.26
2019-05-11T06:39:00.162Z,99700.28
2019-05-11T06:41:31.446Z,99704.78
2019-05-11T06:44:02.739Z,99703.00
2019-05-11T06:46:35.100Z,99709.34
2019-05-11T06:49:06.601Z,99710.02
2019-05-11T06:51:40.431Z,99706.74
2019-05-11T06:54:10.911Z,99708.18
2019-05-11T06:56:42.220Z,99709.83
2019-05-11T06:59:13.524Z,99712.66
2019-05-11T07:01:44.769Z,99709.22
2019-05-11T07:04:16.104Z,99701.52
2019-05-11T07:06:47.404Z,99704.20
2019-05-11T07:09:18.720Z,99703.03
2019-05-11T07:11:50.043Z,99697.61
2019-05-11T07:14:21.631Z,99704.64
2019-05-11T07:16:52.985Z,99711.07
2019-05-11T07:19:24.344Z,99709.95
2019-05-11T07:21:55.685Z,99713.34
2019-05-11T07:24:26.986Z,99713.81
2019-05-11T07:26:58.299Z,99721.45
2019-05-11T07:29:29.628Z,99731.70
2019-05-11T07:32:10.144Z,99730.30
2019-05-11T07:34:33.933Z,99731.81
2019-05-11T07:37:05.258Z,99731.61
2019-05-11T07:39:38.299Z,99737.91
2019-05-11T07:42:09.742Z,99738.00
2019-05-11T07:44:41.881Z,99746.94
2019-05-11T07:47:13.301Z,99742.32
2019-05-11T07:49:44.729Z,99738.66
2019-05-11T07:52:18.077Z,99737.05
2019-05-11T07:54:52.850Z,99739.74
2019-05-11T07:57:22.101Z,99745.07
2019-05-11T07:59:53.364Z,99745.58
2019-05-11T08:02:24.736Z,99745.52
2019-05-11T08:04:58.517Z,99747.39
2019-05-11T08:07:28.946Z,99744.50
2019-05-11T08:10:00.239Z,99753.62
2019-05-11T08:12:31.540Z,99753.92
2019-05-11T08:15:09.084Z,99757.19
2019-05-11T08:17:37.952Z,99757.95
2019-05-11T08:20:09.183Z,99757.19
2019-05-11T08:22:40.511Z,99765.09
2019-05-11T08:25:11.826Z,99764.27
2019-05-11T08:27:43.193Z,99768.85
2019-05-11T08:30:15.202Z,99772.19
2019-05-11T08:32:49.095Z,99774.42
2019-05-11T08:35:19.459Z,99779.84
2019-05-11T08:37:50.777Z,99784.81
2019-05-11T08:40:22.405Z,99786.59
2019-05-11T08:42:53.700Z,99789.53
2019-05-11T08:45:25.046Z,99788.63
2019-05-11T08:47:57.906Z,99791.40
2019-05-11T08:50:29.462Z,99791.80
2019-05-11T08:53:00.697Z,99803.78
2019-05-11T08:55:32.030Z,99804.77
2019-05-11T08:58:03.252Z,99807.95
2019-05-11T09:00:34.584Z,99810.52
2019-05-11T09:03:08.368Z,99811.48
2019-05-11T09:05:38.974Z,99823.48
2019-05-11T09:08:10.342Z,99821.97
2019-05-11T09:10:41.658Z,99822.47
2019-05-11T09:13:13.036Z,99824.91
2019-05-11T09:15:44.375Z,99825.66
2019-05-11T09:18:15.693Z,99822.66
2019-05-11T09:20:48.701Z,99821.31
2019-05-11T09:23:33.518Z,99825.93
2019-05-11T09:25:53.019Z,99840.59
2019-05-11T09:28:24.295Z,99844.31
2019-05-11T09:30:57.800Z,99855.16
2019-05-11T09:33:28.625Z,99864.67
2019-05-11T09:35:59.936Z,99860.64
2019-05-11T09:38:31.267Z,99865.27
2019-05-11T09:41:02.527Z,99866.48
2019-05-11T09:43:33.815Z,99870.38
2019-05-11T09:46:05.091Z,99873.81
2019-05-11T09:48:37.859Z,99877.59
2019-05-11T09:51:09.323Z,99884.13
2019-05-11T09:53:40.692Z,99883.87
2019-05-11T09:56:12.048Z,99882.92
2019-05-11T09:58:43.429Z,99884.86
2019-05-11T10:01:14.770Z,99883.73
2019-05-11T10:03:48.222Z,99878.84
2019-05-11T10:06:19.304Z,99886.85
2019-05-11T10:08:50.625Z,99889.89
2019-05-11T10:11:21.947Z,99893.28
2019-05-11T10:13:53.287Z,99899.86
2019-05-11T10:16:24.642Z,99901.65
2019-05-11T10:18:55.915Z,99902.69
2019-05-11T10:21:27.935Z,99905.14
2019-05-11T10:23:59.289Z,99908.36
2019-05-11T10:26:30.598Z,99915.04
2019-05-11T10:29:01.895Z,99915.31
2019-05-11T10:31:34.671Z,99919.49
2019-05-11T10:34:08.460Z,99922.78
2019-05-11T10:36:38.993Z,99929.84
2019-05-11T10:39:10.828Z,99940.16
2019-05-11T10:41:42.110Z,99938.16
2019-05-11T10:44:13.401Z,99947.00
2019-05-11T10:46:44.716Z,99954.42
2019-05-11T10:49:18.303Z,99962.16
2019-05-11T10:51:49.051Z,99958.88
2019-05-11T10:54:20.366Z,99959.41
2019-05-11T10:56:51.737Z,99968.25
2019-05-11T10:59:23.035Z,99965.58
2019-05-11T11:01:54.350Z,99963.16
2019-05-11T11:04:25.610Z,99968.77
2019-05-11T11:06:59.061Z,99969.27
2019-05-11T11:09:29.979Z,99975.47
2019-05-11T11:12:01.312Z,99976.14
2019-05-11T11:14:32.598Z,99981.36
2019-05-11T11:17:03.901Z,99979.60
2019-05-11T11:19:35.197Z,99993.37
2019-05-11T11:22:32.396Z,99990.02
2019-05-11T11:24:39.554Z,99996.92
2019-05-11T11:27:10.985Z,99995.92
2019-05-11T11:29:42.548Z,99991.17
2019-05-11T11:32:13.827Z,99998.30
2019-05-11T11:34:45.127Z,99996.05
2019-05-11T11:37:17.573Z,100003.59
2019-05-11T11:39:49.008Z,100005.09
2019-05-11T11:42:20.275Z,100006.40
2019-05-11T11:44:51.619Z,100018.99
2019-05-11T11:47:22.917Z,100028.22
2019-05-11T11:49:54.199Z,100023.22
2019-05-11T11:52:27.626Z,100026.91
2019-05-11T11:54:58.760Z,100036.77
2019-05-11T11:57:30.092Z,100037.20
2019-05-11T12:00:01.406Z,100043.90
2019-05-11T12:02:32.654Z,100038.74
2019-05-11T12:05:03.992Z,100038.90
2019-05-11T12:07:35.312Z,100047.91
2019-05-11T12:10:07.766Z,100063.52
2019-05-11T12:12:39.261Z,100058.23
2019-05-11T12:15:10.757Z,100064.27
2019-05-11T12:17:42.062Z,100071.50
2019-05-11T12:20:13.576Z,100079.41
2019-05-11T12:22:44.830Z,100081.31
2019-05-11T12:25:18.326Z,100086.01
2019-05-11T12:27:49.298Z,100091.37
2019-05-11T12:30:20.732Z,100085.78
2019-05-11T12:32:52.005Z,100092.86
2019-05-11T12:35:23.343Z,100094.06
2019-05-11T12:37:54.597Z,100101.20
2019-05-11T12:40:28.162Z,100097.68
2019-05-11T12:42:59.182Z,100105.06
2019-05-11T12:45:30.558Z,100100.94
2019-05-11T12:48:01.820Z,100126.64
2019-05-11T12:50:33.143Z,100122.84
2019-05-11T12:53:04.419Z,100132.02
2019-05-11T12:55:37.767Z,100141.19
2019-05-11T12:58:08.790Z,100148.84
2019-05-11T13:00:40.075Z,100147.23
2019-05-11T13:03:11.386Z,100156.05
2019-05-11T13:05:42.741Z,100161.09
2019-05-11T13:08:13.982Z,100165.33
2019-05-11T13:10:47.726Z,100165.72
2019-05-11T13:13:18.530Z,100172.45
2019-05-11T13:15:49.876Z,100187.11
2019-05-11T13:18:21.193Z,100181.34
2019-05-11T13:20:52.562Z,100189.36
2019-05-11T13:23:23.896Z,100180.97
2019-05-11T13:25:55.249Z,100189.61
2019-05-11T13:28:28.387Z,100182.94
2019-05-11T13:30:59.523Z,100193.55
2019-05-11T13:33:30.875Z,100201.72
2019-05-11T13:36:02.168Z,100206.64
2019-05-11T13:38:33.452Z,100207.09
2019-05-11T13:41:04.771Z,100213.47
2019-05-11T13:43:38.424Z,100222.23
2019-05-11T13:46:09.052Z,100219.55
2019-05-11T13:48:40.366Z,100225.76
2019-05-11T13:51:11.695Z,100226.70
2019-05-11T13:53:42.967Z,100230.72
2019-05-11T13:56:14.274Z,100237.34
2019-05-11T13:58:45.615Z,100236.14
2019-05-11T14:01:18.419Z,100229.69
2019-05-11T14:03:50.039Z,100234.22
2019-05-11T14:06:21.380Z,100243.04
2019-05-11T14:08:52.689Z,100244.41
2019-05-11T14:11:24.073Z,100254.57
2019-05-11T14:13:55.379Z,100245.08
2019-05-11T14:16:27.589Z,100247.86
2019-05-11T14:18:59.167Z,100251.73
2019-05-11T14:21:30.477Z,100261.91
2019-05-11T14:24:01.754Z,100260.98
2019-05-11T14:26:33.054Z,100260.94
2019-05-11T14:29:04.388Z,100260.66
2019-05-11T14:31:35.674Z,100266.44
2019-05-11T14:34:08.879Z,100277.94
2019-05-11T14:36:40.052Z,100277.97
2019-05-11T14:39:11.376Z,100280.13
2019-05-11T14:41:42.754Z,100288.53
2019-05-11T14:44:14.120Z,100290.48
2019-05-11T14:46:47.582Z,100300.48
2019-05-11T14:49:18.597Z,100295.64
2019-05-11T14:51:49.914Z,100306.59
2019-05-11T14:54:21.213Z,100316.79
2019-05-11T14:56:52.529Z,100326.27
2019-05-11T14:59:23.829Z,100320.95
2019-05-11T15:01:55.158Z,100326.73
2019-05-11T15:04:28.580Z,100334.20
2019-05-11T15:06:59.478Z,100328.39
2019-05-11T15:09:30.751Z,100337.16
2019-05-11T15:12:02.028Z,100339.58
2019-05-11T15:14:33.335Z,100340.02
2019-05-11T15:17:04.620Z,100339.48
2019-05-11T15:19:38.157Z,100345.05
2019-05-11T15:22:08.881Z,100350.02
2019-05-11T15:24:40.189Z,100355.19
2019-05-11T15:27:11.502Z,100361.17
2019-05-11T15:29:42.924Z,100359.56
2019-05-11T15:32:14.323Z,100365.91
2019-05-11T15:34:45.917Z,100373.19
2019-05-11T15:37:17.797Z,100374.55
2019-05-11T15:39:49.225Z,100373.64
2019-05-11T15:42:20.496Z,100373.59
2019-05-11T15:44:51.748Z,100374.80
2019-05-11T15:47:23.896Z,100375.91
2019-05-11T15:49:57.767Z,100377.62
2019-05-11T15:52:28.345Z,100388.18
2019-05-11T15:54:59.687Z,100386.70
2019-05-11T15:57:30.974Z,100394.97
2019-05-11T16:00:02.230Z,100400.13
2019-05-11T16:02:33.616Z,100404.82
2019-05-11T16:05:05.830Z,100414.13
2019-05-11T16:07:38.380Z,100414.43
2019-05-11T16:10:10.537Z,100420.88
2019-05-11T16:12:41.826Z,100425.17
2019-05-11T16:15:14.616Z,100437.27
2019-05-11T16:17:48.424Z,100433.55
2019-05-11T16:20:19.243Z,100437.39
2019-05-11T16:22:50.606Z,100439.78
2019-05-11T16:25:21.908Z,100444.97
2019-05-11T16:27:53.165Z,100446.70
2019-05-11T16:30:24.473Z,100452.70
2019-05-11T16:32:58.148Z,100458.02
2019-05-11T16:35:29.829Z,100462.56
2019-05-11T16:38:01.152Z,100468.00
2019-05-11T16:40:32.525Z,100466.94
2019-05-11T16:43:04.101Z,100469.02
2019-05-11T16:45:35.825Z,100464.13
2019-05-11T16:48:08.019Z,100470.50
2019-05-11T16:50:39.633Z,100478.36
2019-05-11T16:53:10.905Z,100487.65
2019-05-11T16:55:42.195Z,100489.75
2019-05-11T16:58:13.481Z,100486.89
2019-05-11T17:00:44.792Z,100494.31
2019-05-11T17:03:16.082Z,100491.58
2019-05-11T17:05:48.502Z,100497.25
2019-05-11T17:08:19.914Z,100503.27
2019-05-11T17:10:59.156Z,100499.84
2019-05-11T17:13:30.790Z,100502.77
2019-05-11T17:16:02.114Z,100507.05
2019-05-11T17:18:33.448Z,100504.30
2019-05-11T17:21:04.735Z,100512.30
2019-05-11T17:23:38.224Z,100522.59
2019-05-11T17:26:09.035Z,100523.06
2019-05-11T17:28:40.337Z,100537.01
2019-05-11T17:31:18.563Z,100548.34
2019-05-11T17:33:48.873Z,100554.24
2019-05-11T17:36:20.123Z,100556.29
2019-05-11T17:38:51.888Z,100558.28
2019-05-11T17:41:23.195Z,100568.50
2019-05-11T17:43:54.479Z,100560.34
2019-05-11T17:46:27.856Z,100568.19
2019-05-11T17:48:58.684Z,100572.53
2019-05-11T17:51:29.983Z,100571.53
2019-05-11T17:54:01.243Z,100578.12
2019-05-11T17:56:32.502Z,100580.50
2019-05-11T17:59:03.791Z,100582.48
2019-05-11T18:01:35.041Z,100597.95
2019-05-11T18:04:07.915Z,100595.27
2019-05-11T18:06:39.501Z,100604.09
2019-05-11T18:09:10.763Z,100603.20
2019-05-11T18:11:42.045Z,100614.69
2019-05-11T18:14:13.295Z,100620.44
2019-05-11T18:16:44.535Z,100624.84
2019-05-11T18:19:15.865Z,100638.08
2019-05-11T18:21:48.747Z,100643.70
2019-05-11T18:24:20.070Z,100645.94
2019-05-11T18:26:51.382Z,100651.96
2019-05-11T18:29:58.034Z,100654.72
2019-05-11T18:32:32.748Z,100660.37
2019-05-11T18:35:04.105Z,100669.29
2019-05-11T18:37:35.393Z,100672.47
2019-05-11T18:40:07.606Z,100672.78
2019-05-11T18:42:38.922Z,100677.64
2019-05-11T18:45:10.607Z,100681.11
2019-05-11T18:47:41.901Z,100691.47
2019-05-11T18:50:13.559Z,100695.91
2019-05-11T18:52:44.834Z,100708.91
2019-05-11T18:55:16.128Z,100714.69
2019-05-11T18:57:49.043Z,100724.27
2019-05-11T19:00:21.544Z,100727.27
2019-05-11T19:02:52.807Z,100730.55
2019-05-11T19:05:24.080Z,100744.20
2019-05-11T19:07:55.352Z,100751.13
2019-05-11T19:10:27.747Z,100761.60
2019-05-11T19:12:59.202Z,100760.25
2019-05-11T19:15:31.044Z,100765.59
2019-05-11T19:18:02.342Z,100773.20
2019-05-11T19:20:45.354Z,100772.45
2019-05-11T19:23:08.330Z,100779.80
2019-05-11T19:25:39.694Z,100782.34
2019-05-11T19:28:10.928Z,100786.22
2019-05-11T19:30:42.243Z,100794.62
2019-05-11T19:33:13.551Z,100800.05
2019-05-11T19:35:44.840Z,100815.22
2019-05-11T19:38:16.133Z,100812.97
2019-05-11T19:40:48.444Z,100827.08
2019-05-11T19:43:19.815Z,100830.63
2019-05-11T19:45:51.143Z,100840.20
2019-05-11T19:48:22.498Z,100838.88
2019-05-11T19:51:06.574Z,100850.41
2019-05-11T19:53:28.051Z,100855.59
2019-05-11T19:55:59.555Z,100861.64
2019-05-11T19:58:30.881Z,100870.37
2019-05-11T20:01:02.125Z,100880.30
2019-05-11T20:03:33.395Z,100883.56
2019-05-11T20:06:04.676Z,100894.25
2019-05-11T20:08:35.960Z,100897.05
2019-05-11T20:11:08.249Z,100907.60
2019-05-11T20:13:39.672Z,100910.68
2019-05-11T20:16:10.944Z,100915.93
2019-05-11T20:18:42.275Z,100921.69
2019-05-11T20:21:19.292Z,100924.30
2019-05-11T20:23:48.394Z,100935.91
2019-05-11T20:26:19.542Z,100940.88
2019-05-11T20:28:50.857Z,100949.66
2019-05-11T20:31:22.182Z,100951.20
2019-05-11T20:33:53.467Z,100961.12
2019-05-11T20:36:24.737Z,100959.50
2019-05-11T20:38:56.470Z,100959.81
2019-05-11T20:41:28.063Z,100971.06
2019-05-11T20:43:59.936Z,100981.61
2019-05-11T20:46:31.287Z,100986.22
2019-05-11T20:49:02.989Z,100994.41
2019-05-11T20:51:37.220Z,100995.33
2019-05-11T20:54:08.822Z,100999.87
2019-05-11T20:56:40.560Z,101003.02
2019-05-11T20:59:12.566Z,101006.66
2019-05-11T21:01:44.168Z,101016.01
2019-05-11T21:04:15.518Z,101013.58
2019-05-11T21:06:47.536Z,101020.43
2019-05-11T21:09:19.034Z,101022.70
2019-05-11T21:11:50.811Z,101027.28
2019-05-11T21:14:22.104Z,101034.94
2019-05-11T21:16:53.492Z,101039.08
2019-05-11T21:19:24.782Z,101046.02
2019-05-11T21:21:58.756Z,101050.17
2019-05-11T21:24:28.988Z,101061.25
2019-05-11T21:27:00.270Z,101053.49
2019-05-11T21:29:31.542Z,101053.63
2019-05-11T21:32:02.770Z,101057.64
2019-05-11T21:34:34.067Z,101059.63
2019-05-11T21:37:07.711Z,101063.75
2019-05-11T21:39:38.295Z,101066.50
2019-05-11T21:42:09.548Z,101081.09
2019-05-11T21:44:40.804Z,101078.23
2019-05-11T21:47:12.123Z,101085.92
2019-05-11T21:49:43.377Z,101082.08
2019-05-11T21:52:14.680Z,101082.76
2019-05-11T21:54:46.017Z,101094.28
2019-05-11T21:57:18.587Z,101103.59
2019-05-11T21:59:49.991Z,101110.59
2019-05-11T22:02:21.354Z,101115.95
2019-05-11T22:04:52.625Z,101117.44
2019-05-11T22:07:23.886Z,101118.03
2019-05-11T22:09:55.196Z,101122.09
2019-05-11T22:12:27.956Z,101122.09
2019-05-11T22:14:59.338Z,101127.11
2019-05-11T22:17:30.827Z,101129.84
2019-05-11T22:20:02.257Z,101131.66
2019-05-11T22:22:33.514Z,101136.14
2019-05-11T22:25:04.911Z,101131.81
2019-05-11T22:27:38.408Z,101137.17
2019-05-11T22:30:10.330Z,101136.69
2019-05-11T22:32:41.603Z,101137.72
2019-05-11T22:35:13.716Z,101147.53
2019-05-11T22:37:45.054Z,101150.67
2019-05-11T22:40:16.478Z,101151.69
2019-05-11T22:42:47.729Z,101153.97
2019-05-11T22:45:19.128Z,101157.12
2019-05-11T22:47:50.472Z,101156.30
2019-05-11T22:50:21.778Z,101162.08
2019-05-11T22:52:53.078Z,101163.45
2019-05-11T22:55:24.444Z,101172.67
2019-05-11T22:57:57.957Z,101181.47
2019-05-11T23:00:43.945Z,101189.95
2019-05-11T23:03:15.328Z,101194.84
2019-05-11T23:05:47.705Z,101194.46
2019-05-11T23:08:19.023Z,101193.67
2019-05-11T23:10:50.311Z,101198.12
2019-05-11T23:13:21.590Z,101203.81
2019-05-11T23:15:52.833Z,101208.22
2019-05-11T23:18:24.089Z,101209.23
2019-05-11T23:20:55.353Z,101214.51
2019-05-11T23:23:28.311Z,101214.08
2019-05-11T23:25:59.742Z,101210.66
2019-05-11T23:28:31.030Z,101209.87
2019-05-11T23:31:02.270Z,101215.19
2019-05-11T23:33:33.548Z,101219.59
2019-05-11T23:36:04.829Z,101225.28
2019-05-11T23:38:38.543Z,101234.53
2019-05-11T23:41:22.591Z,101235.92
2019-05-11T23:43:42.091Z,101242.55
2019-05-11T23:46:13.341Z,101241.72
2019-05-11T23:48:44.620Z,101246.56
2019-05-11T23:51:17.960Z,101249.22
2019-05-11T23:53:48.862Z,101249.69
2019-05-11T23:56:20.143Z,101247.61
2019-05-11T23:58:51.407Z,101254.16
